sensor_id;sensor_type;location;lat;lon;timestamp;P1;durP1;ratioP1;P2;durP2;ratioP2
78610;SDS011;67932;50.474;4.436;2023-06-22T00:00:55;10.43;;;6.43;;
78610;SDS011;67932;50.474;4.436;2023-06-22T00:03:22;8.90;;;5.88;;
78610;SDS011;67932;50.474;4.436;2023-06-22T00:05:49;10.75;;;7.07;;
78610;SDS011;67932;50.474;4.436;2023-06-22T00:08:16;9.68;;;6.30;;
78610;SDS011;67932;50.474;4.436;2023-06-22T00:10:44;8.90;;;6.53;;
78610;SDS011;67932;50.474;4.436;2023-06-22T00:13:11;14.23;;;6.93;;
78610;SDS011;67932;50.474;4.436;2023-06-22T00:15:39;10.48;;;6.43;;
78610;SDS011;67932;50.474;4.436;2023-06-22T00:18:06;9.82;;;6.53;;
78610;SDS011;67932;50.474;4.436;2023-06-22T00:20:33;10.40;;;6.43;;
78610;SDS011;67932;50.474;4.436;2023-06-22T00:23:02;9.27;;;6.28;;
78610;SDS011;67932;50.474;4.436;2023-06-22T00:25:33;9.90;;;6.32;;
78610;SDS011;67932;50.474;4.436;2023-06-22T00:28:02;10.93;;;6.80;;
78610;SDS011;67932;50.474;4.436;2023-06-22T00:30:30;10.30;;;6.35;;
78610;SDS011;67932;50.474;4.436;2023-06-22T00:32:57;7.53;;;5.95;;
78610;SDS011;67932;50.474;4.436;2023-06-22T00:35:24;8.38;;;5.95;;
78610;SDS011;67932;50.474;4.436;2023-06-22T00:37:58;8.43;;;6.20;;
78610;SDS011;67932;50.474;4.436;2023-06-22T00:40:32;8.05;;;5.75;;
78610;SDS011;67932;50.474;4.436;2023-06-22T00:42:59;8.43;;;5.70;;
78610;SDS011;67932;50.474;4.436;2023-06-22T00:45:26;10.52;;;6.50;;
78610;SDS011;67932;50.474;4.436;2023-06-22T00:47:53;8.45;;;5.72;;
78610;SDS011;67932;50.474;4.436;2023-06-22T00:50:22;7.68;;;5.63;;
78610;SDS011;67932;50.474;4.436;2023-06-22T00:52:53;8.45;;;5.68;;
78610;SDS011;67932;50.474;4.436;2023-06-22T00:55:22;8.77;;;5.40;;
78610;SDS011;67932;50.474;4.436;2023-06-22T00:57:49;8.65;;;5.35;;
78610;SDS011;67932;50.474;4.436;2023-06-22T01:00:15;9.25;;;6.05;;
78610;SDS011;67932;50.474;4.436;2023-06-22T01:02:44;9.38;;;5.80;;
78610;SDS011;67932;50.474;4.436;2023-06-22T01:05:12;9.32;;;5.63;;
78610;SDS011;67932;50.474;4.436;2023-06-22T01:07:42;7.97;;;5.90;;
78610;SDS011;67932;50.474;4.436;2023-06-22T01:12:53;9.85;;;5.88;;
78610;SDS011;67932;50.474;4.436;2023-06-22T01:15:44;8.32;;;5.38;;
78610;SDS011;67932;50.474;4.436;2023-06-22T01:18:17;8.43;;;5.50;;
78610;SDS011;67932;50.474;4.436;2023-06-22T01:20:45;9.10;;;6.32;;
78610;SDS011;67932;50.474;4.436;2023-06-22T01:23:29;8.68;;;5.75;;
78610;SDS011;67932;50.474;4.436;2023-06-22T01:28:55;8.73;;;5.82;;
78610;SDS011;67932;50.474;4.436;2023-06-22T01:31:26;8.27;;;5.60;;
78610;SDS011;67932;50.474;4.436;2023-06-22T01:33:55;8.73;;;5.85;;
78610;SDS011;67932;50.474;4.436;2023-06-22T01:36:26;9.05;;;5.45;;
78610;SDS011;67932;50.474;4.436;2023-06-22T01:38:54;9.13;;;5.68;;
78610;SDS011;67932;50.474;4.436;2023-06-22T01:41:23;8.70;;;5.43;;
78610;SDS011;67932;50.474;4.436;2023-06-22T01:43:51;7.20;;;5.18;;
78610;SDS011;67932;50.474;4.436;2023-06-22T01:46:19;8.70;;;5.70;;
78610;SDS011;67932;50.474;4.436;2023-06-22T01:48:47;8.00;;;5.45;;
78610;SDS011;67932;50.474;4.436;2023-06-22T01:51:14;8.23;;;6.03;;
78610;SDS011;67932;50.474;4.436;2023-06-22T01:53:41;10.15;;;5.65;;
78610;SDS011;67932;50.474;4.436;2023-06-22T01:56:08;6.80;;;5.13;;
78610;SDS011;67932;50.474;4.436;2023-06-22T01:58:34;8.13;;;5.00;;
78610;SDS011;67932;50.474;4.436;2023-06-22T02:01:16;8.90;;;5.15;;
78610;SDS011;67932;50.474;4.436;2023-06-22T02:03:52;7.90;;;5.00;;
78610;SDS011;67932;50.474;4.436;2023-06-22T02:06:30;9.02;;;4.47;;
78610;SDS011;67932;50.474;4.436;2023-06-22T02:09:03;7.10;;;4.50;;
78610;SDS011;67932;50.474;4.436;2023-06-22T02:11:34;6.70;;;4.18;;
78610;SDS011;67932;50.474;4.436;2023-06-22T02:14:03;7.50;;;4.90;;
78610;SDS011;67932;50.474;4.436;2023-06-22T02:16:31;6.70;;;4.22;;
78610;SDS011;67932;50.474;4.436;2023-06-22T02:18:57;5.80;;;4.22;;
78610;SDS011;67932;50.474;4.436;2023-06-22T02:21:31;8.25;;;4.00;;
78610;SDS011;67932;50.474;4.436;2023-06-22T02:23:58;8.25;;;4.13;;
78610;SDS011;67932;50.474;4.436;2023-06-22T02:26:24;8.00;;;5.18;;
78610;SDS011;67932;50.474;4.436;2023-06-22T02:28:51;6.38;;;4.00;;
78610;SDS011;67932;50.474;4.436;2023-06-22T02:31:18;6.38;;;4.00;;
78610;SDS011;67932;50.474;4.436;2023-06-22T02:33:45;7.63;;;4.57;;
78610;SDS011;67932;50.474;4.436;2023-06-22T02:36:13;6.38;;;4.15;;
78610;SDS011;67932;50.474;4.436;2023-06-22T02:38:43;8.75;;;4.60;;
78610;SDS011;67932;50.474;4.436;2023-06-22T02:41:13;7.47;;;4.68;;
78610;SDS011;67932;50.474;4.436;2023-06-22T02:43:43;7.63;;;4.88;;
78610;SDS011;67932;50.474;4.436;2023-06-22T02:46:10;6.90;;;5.03;;
78610;SDS011;67932;50.474;4.436;2023-06-22T02:48:38;6.22;;;4.25;;
78610;SDS011;67932;50.474;4.436;2023-06-22T02:51:05;6.70;;;4.50;;
78610;SDS011;67932;50.474;4.436;2023-06-22T02:53:32;10.38;;;4.55;;
78610;SDS011;67932;50.474;4.436;2023-06-22T02:55:58;7.07;;;3.97;;
78610;SDS011;67932;50.474;4.436;2023-06-22T02:58:26;6.28;;;3.95;;
78610;SDS011;67932;50.474;4.436;2023-06-22T03:00:53;7.22;;;4.30;;
78610;SDS011;67932;50.474;4.436;2023-06-22T03:03:19;6.30;;;4.68;;
78610;SDS011;67932;50.474;4.436;2023-06-22T03:05:45;8.25;;;4.40;;
78610;SDS011;67932;50.474;4.436;2023-06-22T03:08:11;7.32;;;4.05;;
78610;SDS011;67932;50.474;4.436;2023-06-22T03:10:38;9.27;;;4.70;;
78610;SDS011;67932;50.474;4.436;2023-06-22T03:13:04;7.50;;;4.80;;
78610;SDS011;67932;50.474;4.436;2023-06-22T03:15:30;7.03;;;4.72;;
78610;SDS011;67932;50.474;4.436;2023-06-22T03:17:57;7.28;;;4.95;;
78610;SDS011;67932;50.474;4.436;2023-06-22T03:20:24;7.05;;;4.30;;
78610;SDS011;67932;50.474;4.436;2023-06-22T03:22:51;5.78;;;4.15;;
78610;SDS011;67932;50.474;4.436;2023-06-22T03:25:18;6.78;;;3.90;;
78610;SDS011;67932;50.474;4.436;2023-06-22T03:27:44;5.90;;;4.00;;
78610;SDS011;67932;50.474;4.436;2023-06-22T03:30:11;5.35;;;3.58;;
78610;SDS011;67932;50.474;4.436;2023-06-22T03:32:37;5.30;;;3.40;;
78610;SDS011;67932;50.474;4.436;2023-06-22T03:35:04;4.80;;;3.40;;
78610;SDS011;67932;50.474;4.436;2023-06-22T03:37:31;4.75;;;3.63;;
78610;SDS011;67932;50.474;4.436;2023-06-22T03:39:57;7.40;;;3.28;;
78610;SDS011;67932;50.474;4.436;2023-06-22T03:42:23;7.70;;;3.63;;
78610;SDS011;67932;50.474;4.436;2023-06-22T03:44:51;6.78;;;3.30;;
78610;SDS011;67932;50.474;4.436;2023-06-22T03:47:17;7.85;;;3.67;;
78610;SDS011;67932;50.474;4.436;2023-06-22T03:49:43;6.32;;;3.60;;
78610;SDS011;67932;50.474;4.436;2023-06-22T03:52:10;5.55;;;3.65;;
78610;SDS011;67932;50.474;4.436;2023-06-22T03:54:36;4.35;;;3.78;;
78610;SDS011;67932;50.474;4.436;2023-06-22T03:57:02;6.50;;;4.10;;
78610;SDS011;67932;50.474;4.436;2023-06-22T03:59:28;5.03;;;3.38;;
78610;SDS011;67932;50.474;4.436;2023-06-22T04:01:55;7.32;;;3.28;;
78610;SDS011;67932;50.474;4.436;2023-06-22T04:04:21;6.78;;;3.80;;
78610;SDS011;67932;50.474;4.436;2023-06-22T04:06:48;5.53;;;3.25;;
78610;SDS011;67932;50.474;4.436;2023-06-22T04:09:14;5.85;;;3.60;;
78610;SDS011;67932;50.474;4.436;2023-06-22T04:11:40;7.43;;;3.22;;
78610;SDS011;67932;50.474;4.436;2023-06-22T04:14:06;6.30;;;3.80;;
78610;SDS011;67932;50.474;4.436;2023-06-22T04:16:33;7.35;;;3.50;;
78610;SDS011;67932;50.474;4.436;2023-06-22T04:18:59;6.18;;;3.58;;
78610;SDS011;67932;50.474;4.436;2023-06-22T04:21:25;6.38;;;3.97;;
78610;SDS011;67932;50.474;4.436;2023-06-22T04:23:51;6.05;;;4.03;;
78610;SDS011;67932;50.474;4.436;2023-06-22T04:26:18;6.88;;;3.63;;
78610;SDS011;67932;50.474;4.436;2023-06-22T04:28:46;6.20;;;3.58;;
78610;SDS011;67932;50.474;4.436;2023-06-22T04:31:20;6.68;;;3.67;;
78610;SDS011;67932;50.474;4.436;2023-06-22T04:33:52;6.55;;;3.63;;
78610;SDS011;67932;50.474;4.436;2023-06-22T04:36:18;6.20;;;3.67;;
78610;SDS011;67932;50.474;4.436;2023-06-22T04:38:46;6.05;;;3.63;;
78610;SDS011;67932;50.474;4.436;2023-06-22T04:41:12;6.00;;;3.50;;
78610;SDS011;67932;50.474;4.436;2023-06-22T04:43:48;7.22;;;3.88;;
78610;SDS011;67932;50.474;4.436;2023-06-22T04:46:19;6.22;;;3.80;;
78610;SDS011;67932;50.474;4.436;2023-06-22T04:48:45;6.93;;;3.88;;
78610;SDS011;67932;50.474;4.436;2023-06-22T04:51:11;8.20;;;3.70;;
78610;SDS011;67932;50.474;4.436;2023-06-22T04:53:37;5.57;;;3.97;;
78610;SDS011;67932;50.474;4.436;2023-06-22T04:56:06;7.45;;;3.90;;
78610;SDS011;67932;50.474;4.436;2023-06-22T04:58:33;6.18;;;4.30;;
78610;SDS011;67932;50.474;4.436;2023-06-22T05:00:59;7.00;;;3.80;;
78610;SDS011;67932;50.474;4.436;2023-06-22T05:03:25;5.68;;;3.83;;
78610;SDS011;67932;50.474;4.436;2023-06-22T05:05:52;5.68;;;4.20;;
78610;SDS011;67932;50.474;4.436;2023-06-22T05:08:18;6.78;;;4.03;;
78610;SDS011;67932;50.474;4.436;2023-06-22T05:10:45;9.48;;;4.53;;
78610;SDS011;67932;50.474;4.436;2023-06-22T05:13:11;7.47;;;4.80;;
78610;SDS011;67932;50.474;4.436;2023-06-22T05:15:37;7.25;;;4.55;;
78610;SDS011;67932;50.474;4.436;2023-06-22T05:18:05;9.18;;;5.53;;
78610;SDS011;67932;50.474;4.436;2023-06-22T05:20:31;10.32;;;5.40;;
78610;SDS011;67932;50.474;4.436;2023-06-22T05:23:01;9.05;;;5.30;;
78610;SDS011;67932;50.474;4.436;2023-06-22T05:25:27;9.45;;;5.38;;
78610;SDS011;67932;50.474;4.436;2023-06-22T05:27:57;11.20;;;5.75;;
78610;SDS011;67932;50.474;4.436;2023-06-22T05:30:23;8.73;;;5.10;;
78610;SDS011;67932;50.474;4.436;2023-06-22T05:32:49;10.02;;;5.22;;
78610;SDS011;67932;50.474;4.436;2023-06-22T05:35:18;8.82;;;5.00;;
78610;SDS011;67932;50.474;4.436;2023-06-22T05:37:44;8.95;;;4.93;;
78610;SDS011;67932;50.474;4.436;2023-06-22T05:40:11;8.18;;;5.10;;
78610;SDS011;67932;50.474;4.436;2023-06-22T05:42:38;8.90;;;5.43;;
78610;SDS011;67932;50.474;4.436;2023-06-22T05:45:04;9.88;;;5.93;;
78610;SDS011;67932;50.474;4.436;2023-06-22T05:47:31;7.47;;;5.45;;
78610;SDS011;67932;50.474;4.436;2023-06-22T05:49:57;9.35;;;6.28;;
78610;SDS011;67932;50.474;4.436;2023-06-22T05:52:24;10.45;;;6.18;;
78610;SDS011;67932;50.474;4.436;2023-06-22T05:54:50;8.82;;;6.28;;
78610;SDS011;67932;50.474;4.436;2023-06-22T05:57:17;10.35;;;6.43;;
78610;SDS011;67932;50.474;4.436;2023-06-22T05:59:43;14.63;;;7.00;;
78610;SDS011;67932;50.474;4.436;2023-06-22T06:02:10;9.95;;;6.57;;
78610;SDS011;67932;50.474;4.436;2023-06-22T06:04:36;12.35;;;7.40;;
78610;SDS011;67932;50.474;4.436;2023-06-22T06:07:03;14.85;;;7.50;;
78610;SDS011;67932;50.474;4.436;2023-06-22T06:09:30;10.15;;;7.10;;
78610;SDS011;67932;50.474;4.436;2023-06-22T06:11:56;10.52;;;6.72;;
78610;SDS011;67932;50.474;4.436;2023-06-22T06:14:23;12.05;;;7.20;;
78610;SDS011;67932;50.474;4.436;2023-06-22T06:16:49;11.30;;;8.02;;
78610;SDS011;67932;50.474;4.436;2023-06-22T06:19:16;11.45;;;7.50;;
78610;SDS011;67932;50.474;4.436;2023-06-22T06:21:42;11.90;;;7.05;;
78610;SDS011;67932;50.474;4.436;2023-06-22T06:24:08;12.60;;;8.13;;
78610;SDS011;67932;50.474;4.436;2023-06-22T06:26:34;10.80;;;7.15;;
78610;SDS011;67932;50.474;4.436;2023-06-22T06:29:01;15.02;;;8.68;;
78610;SDS011;67932;50.474;4.436;2023-06-22T06:31:27;12.68;;;8.10;;
78610;SDS011;67932;50.474;4.436;2023-06-22T06:33:54;13.57;;;9.27;;
78610;SDS011;67932;50.474;4.436;2023-06-22T06:36:20;14.43;;;9.00;;
78610;SDS011;67932;50.474;4.436;2023-06-22T06:38:46;12.70;;;9.00;;
78610;SDS011;67932;50.474;4.436;2023-06-22T06:41:13;16.00;;;10.93;;
78610;SDS011;67932;50.474;4.436;2023-06-22T06:43:40;15.63;;;9.63;;
78610;SDS011;67932;50.474;4.436;2023-06-22T06:46:10;14.82;;;9.55;;
78610;SDS011;67932;50.474;4.436;2023-06-22T06:48:36;14.13;;;9.57;;
78610;SDS011;67932;50.474;4.436;2023-06-22T06:51:02;19.77;;;10.27;;
78610;SDS011;67932;50.474;4.436;2023-06-22T06:53:28;19.02;;;10.20;;
78610;SDS011;67932;50.474;4.436;2023-06-22T06:55:55;17.58;;;10.45;;
78610;SDS011;67932;50.474;4.436;2023-06-22T06:58:21;15.50;;;11.27;;
78610;SDS011;67932;50.474;4.436;2023-06-22T07:00:48;19.08;;;11.43;;
78610;SDS011;67932;50.474;4.436;2023-06-22T07:03:14;19.58;;;11.55;;
78610;SDS011;67932;50.474;4.436;2023-06-22T07:05:40;16.40;;;10.82;;
78610;SDS011;67932;50.474;4.436;2023-06-22T07:08:07;17.00;;;10.45;;
78610;SDS011;67932;50.474;4.436;2023-06-22T07:10:33;17.90;;;11.40;;
78610;SDS011;67932;50.474;4.436;2023-06-22T07:12:59;19.10;;;10.70;;
78610;SDS011;67932;50.474;4.436;2023-06-22T07:15:26;18.00;;;11.65;;
78610;SDS011;67932;50.474;4.436;2023-06-22T07:17:52;14.63;;;10.52;;
78610;SDS011;67932;50.474;4.436;2023-06-22T07:20:18;15.60;;;9.95;;
78610;SDS011;67932;50.474;4.436;2023-06-22T07:22:45;15.55;;;10.70;;
78610;SDS011;67932;50.474;4.436;2023-06-22T07:25:11;19.02;;;10.80;;
78610;SDS011;67932;50.474;4.436;2023-06-22T07:27:46;16.20;;;10.50;;
78610;SDS011;67932;50.474;4.436;2023-06-22T07:30:32;18.40;;;11.88;;
78610;SDS011;67932;50.474;4.436;2023-06-22T07:32:59;17.58;;;11.93;;
78610;SDS011;67932;50.474;4.436;2023-06-22T07:35:28;16.02;;;11.63;;
78610;SDS011;67932;50.474;4.436;2023-06-22T07:37:57;18.52;;;11.65;;
78610;SDS011;67932;50.474;4.436;2023-06-22T07:40:24;17.42;;;10.77;;
78610;SDS011;67932;50.474;4.436;2023-06-22T07:42:51;19.58;;;11.18;;
78610;SDS011;67932;50.474;4.436;2023-06-22T07:45:18;19.58;;;10.27;;
78610;SDS011;67932;50.474;4.436;2023-06-22T07:47:44;21.08;;;11.27;;
78610;SDS011;67932;50.474;4.436;2023-06-22T07:50:11;14.05;;;10.15;;
78610;SDS011;67932;50.474;4.436;2023-06-22T07:52:37;15.95;;;10.75;;
78610;SDS011;67932;50.474;4.436;2023-06-22T07:55:04;17.77;;;11.27;;
78610;SDS011;67932;50.474;4.436;2023-06-22T07:57:36;17.73;;;11.15;;
78610;SDS011;67932;50.474;4.436;2023-06-22T08:00:03;16.52;;;11.15;;
78610;SDS011;67932;50.474;4.436;2023-06-22T08:06:03;17.40;;;11.43;;
78610;SDS011;67932;50.474;4.436;2023-06-22T08:08:32;18.10;;;11.27;;
78610;SDS011;67932;50.474;4.436;2023-06-22T08:10:58;18.83;;;12.18;;
78610;SDS011;67932;50.474;4.436;2023-06-22T08:13:40;17.85;;;11.43;;
78610;SDS011;67932;50.474;4.436;2023-06-22T08:16:08;18.23;;;12.23;;
78610;SDS011;67932;50.474;4.436;2023-06-22T08:18:34;17.25;;;11.43;;
78610;SDS011;67932;50.474;4.436;2023-06-22T08:21:00;17.48;;;11.05;;
78610;SDS011;67932;50.474;4.436;2023-06-22T08:23:27;17.95;;;11.70;;
78610;SDS011;67932;50.474;4.436;2023-06-22T08:25:53;16.85;;;10.73;;
78610;SDS011;67932;50.474;4.436;2023-06-22T08:28:19;16.88;;;10.57;;
78610;SDS011;67932;50.474;4.436;2023-06-22T08:30:45;13.95;;;9.85;;
78610;SDS011;67932;50.474;4.436;2023-06-22T08:33:12;15.10;;;10.13;;
78610;SDS011;67932;50.474;4.436;2023-06-22T08:35:38;17.60;;;9.75;;
78610;SDS011;67932;50.474;4.436;2023-06-22T08:38:04;15.88;;;10.57;;
78610;SDS011;67932;50.474;4.436;2023-06-22T08:40:31;15.00;;;10.25;;
78610;SDS011;67932;50.474;4.436;2023-06-22T08:42:57;17.00;;;11.77;;
78610;SDS011;67932;50.474;4.436;2023-06-22T08:45:23;16.88;;;10.55;;
78610;SDS011;67932;50.474;4.436;2023-06-22T08:47:50;18.38;;;10.77;;
78610;SDS011;67932;50.474;4.436;2023-06-22T08:50:16;16.20;;;11.00;;
78610;SDS011;67932;50.474;4.436;2023-06-22T08:52:42;15.93;;;11.00;;
78610;SDS011;67932;50.474;4.436;2023-06-22T08:55:10;17.05;;;11.35;;
78610;SDS011;67932;50.474;4.436;2023-06-22T08:57:36;18.40;;;11.23;;
78610;SDS011;67932;50.474;4.436;2023-06-22T09:00:05;20.20;;;12.02;;
78610;SDS011;67932;50.474;4.436;2023-06-22T09:02:46;19.25;;;13.02;;
78610;SDS011;67932;50.474;4.436;2023-06-22T09:05:12;19.25;;;12.15;;
78610;SDS011;67932;50.474;4.436;2023-06-22T09:07:39;20.52;;;13.32;;
78610;SDS011;67932;50.474;4.436;2023-06-22T09:10:05;26.45;;;15.98;;
78610;SDS011;67932;50.474;4.436;2023-06-22T09:12:33;24.40;;;15.07;;
78610;SDS011;67932;50.474;4.436;2023-06-22T09:15:02;25.80;;;15.35;;
78610;SDS011;67932;50.474;4.436;2023-06-22T09:17:28;23.83;;;14.93;;
78610;SDS011;67932;50.474;4.436;2023-06-22T09:19:55;26.42;;;15.77;;
78610;SDS011;67932;50.474;4.436;2023-06-22T09:22:21;25.75;;;16.02;;
78610;SDS011;67932;50.474;4.436;2023-06-22T09:24:48;28.40;;;17.05;;
78610;SDS011;67932;50.474;4.436;2023-06-22T09:27:14;30.70;;;17.65;;
78610;SDS011;67932;50.474;4.436;2023-06-22T09:29:40;29.05;;;17.70;;
78610;SDS011;67932;50.474;4.436;2023-06-22T09:32:07;31.88;;;18.70;;
78610;SDS011;67932;50.474;4.436;2023-06-22T09:34:33;31.65;;;19.50;;
78610;SDS011;67932;50.474;4.436;2023-06-22T09:36:59;34.38;;;19.40;;
78610;SDS011;67932;50.474;4.436;2023-06-22T09:39:26;36.97;;;20.77;;
78610;SDS011;67932;50.474;4.436;2023-06-22T09:41:52;33.35;;;20.23;;
78610;SDS011;67932;50.474;4.436;2023-06-22T09:44:18;29.80;;;19.38;;
78610;SDS011;67932;50.474;4.436;2023-06-22T09:46:45;37.88;;;22.38;;
78610;SDS011;67932;50.474;4.436;2023-06-22T09:49:11;36.75;;;22.10;;
78610;SDS011;67932;50.474;4.436;2023-06-22T09:51:37;38.63;;;21.30;;
78610;SDS011;67932;50.474;4.436;2023-06-22T09:54:04;38.58;;;21.33;;
78610;SDS011;67932;50.474;4.436;2023-06-22T09:56:30;37.67;;;22.40;;
78610;SDS011;67932;50.474;4.436;2023-06-22T09:58:58;34.63;;;23.02;;
78610;SDS011;67932;50.474;4.436;2023-06-22T10:01:26;38.47;;;21.73;;
78610;SDS011;67932;50.474;4.436;2023-06-22T10:03:52;32.63;;;20.73;;
78610;SDS011;67932;50.474;4.436;2023-06-22T10:06:22;34.25;;;20.65;;
78610;SDS011;67932;50.474;4.436;2023-06-22T10:08:53;33.38;;;20.70;;
78610;SDS011;67932;50.474;4.436;2023-06-22T10:11:19;40.63;;;24.60;;
78610;SDS011;67932;50.474;4.436;2023-06-22T10:13:47;34.53;;;20.80;;
78610;SDS011;67932;50.474;4.436;2023-06-22T10:16:14;36.70;;;23.40;;
78610;SDS011;67932;50.474;4.436;2023-06-22T10:18:40;36.03;;;22.15;;
78610;SDS011;67932;50.474;4.436;2023-06-22T10:21:07;32.70;;;20.42;;
78610;SDS011;67932;50.474;4.436;2023-06-22T10:23:34;31.88;;;20.33;;
78610;SDS011;67932;50.474;4.436;2023-06-22T10:26:00;32.38;;;20.38;;
78610;SDS011;67932;50.474;4.436;2023-06-22T10:28:29;36.25;;;20.00;;
78610;SDS011;67932;50.474;4.436;2023-06-22T10:30:55;32.67;;;21.00;;
78610;SDS011;67932;50.474;4.436;2023-06-22T10:33:21;37.20;;;22.15;;
78610;SDS011;67932;50.474;4.436;2023-06-22T10:35:48;31.58;;;19.88;;
78610;SDS011;67932;50.474;4.436;2023-06-22T10:38:14;30.48;;;19.50;;
78610;SDS011;67932;50.474;4.436;2023-06-22T10:40:41;30.38;;;19.58;;
78610;SDS011;67932;50.474;4.436;2023-06-22T10:43:07;30.55;;;18.77;;
78610;SDS011;67932;50.474;4.436;2023-06-22T10:45:33;26.60;;;17.38;;
78610;SDS011;67932;50.474;4.436;2023-06-22T10:48:00;30.55;;;18.80;;
78610;SDS011;67932;50.474;4.436;2023-06-22T10:50:26;25.88;;;17.92;;
78610;SDS011;67932;50.474;4.436;2023-06-22T10:52:53;27.63;;;17.33;;
78610;SDS011;67932;50.474;4.436;2023-06-22T10:55:20;28.70;;;18.33;;
78610;SDS011;67932;50.474;4.436;2023-06-22T10:57:46;29.10;;;18.63;;
78610;SDS011;67932;50.474;4.436;2023-06-22T11:00:13;23.58;;;16.63;;
78610;SDS011;67932;50.474;4.436;2023-06-22T11:02:40;29.58;;;19.92;;
78610;SDS011;67932;50.474;4.436;2023-06-22T11:05:07;27.58;;;16.08;;
78610;SDS011;67932;50.474;4.436;2023-06-22T11:07:33;23.35;;;16.65;;
78610;SDS011;67932;50.474;4.436;2023-06-22T11:09:59;24.10;;;16.35;;
78610;SDS011;67932;50.474;4.436;2023-06-22T11:12:26;23.67;;;16.10;;
78610;SDS011;67932;50.474;4.436;2023-06-22T11:14:52;23.13;;;15.55;;
78610;SDS011;67932;50.474;4.436;2023-06-22T11:17:18;25.17;;;15.38;;
78610;SDS011;67932;50.474;4.436;2023-06-22T11:19:44;23.25;;;16.17;;
78610;SDS011;67932;50.474;4.436;2023-06-22T11:22:11;27.40;;;17.13;;
78610;SDS011;67932;50.474;4.436;2023-06-22T11:24:38;26.38;;;17.70;;
78610;SDS011;67932;50.474;4.436;2023-06-22T11:27:04;22.70;;;15.05;;
78610;SDS011;67932;50.474;4.436;2023-06-22T11:29:30;24.30;;;15.93;;
78610;SDS011;67932;50.474;4.436;2023-06-22T11:31:57;26.38;;;15.27;;
78610;SDS011;67932;50.474;4.436;2023-06-22T11:34:23;24.40;;;15.32;;
78610;SDS011;67932;50.474;4.436;2023-06-22T11:36:51;23.33;;;16.17;;
78610;SDS011;67932;50.474;4.436;2023-06-22T11:39:18;26.45;;;16.60;;
78610;SDS011;67932;50.474;4.436;2023-06-22T11:41:45;27.58;;;17.23;;
78610;SDS011;67932;50.474;4.436;2023-06-22T11:44:13;27.90;;;18.08;;
78610;SDS011;67932;50.474;4.436;2023-06-22T11:46:41;30.98;;;17.55;;
78610;SDS011;67932;50.474;4.436;2023-06-22T11:49:08;28.65;;;17.80;;
78610;SDS011;67932;50.474;4.436;2023-06-22T11:51:35;31.02;;;17.98;;
78610;SDS011;67932;50.474;4.436;2023-06-22T11:54:02;27.58;;;17.48;;
78610;SDS011;67932;50.474;4.436;2023-06-22T11:56:30;29.00;;;17.65;;
78610;SDS011;67932;50.474;4.436;2023-06-22T11:58:57;30.85;;;19.23;;
78610;SDS011;67932;50.474;4.436;2023-06-22T12:01:24;31.13;;;20.25;;
78610;SDS011;67932;50.474;4.436;2023-06-22T12:03:50;31.58;;;19.42;;
78610;SDS011;67932;50.474;4.436;2023-06-22T12:06:17;35.80;;;21.70;;
78610;SDS011;67932;50.474;4.436;2023-06-22T12:08:43;34.38;;;21.02;;
78610;SDS011;67932;50.474;4.436;2023-06-22T12:11:30;36.78;;;21.63;;
78610;SDS011;67932;50.474;4.436;2023-06-22T12:13:57;36.55;;;22.20;;
78610;SDS011;67932;50.474;4.436;2023-06-22T12:16:28;38.72;;;22.90;;
78610;SDS011;67932;50.474;4.436;2023-06-22T12:18:55;35.42;;;20.17;;
78610;SDS011;67932;50.474;4.436;2023-06-22T12:21:23;37.35;;;21.45;;
78610;SDS011;67932;50.474;4.436;2023-06-22T12:23:49;33.85;;;20.90;;
78610;SDS011;67932;50.474;4.436;2023-06-22T12:26:15;35.08;;;21.33;;
78610;SDS011;67932;50.474;4.436;2023-06-22T12:28:42;36.30;;;22.33;;
78610;SDS011;67932;50.474;4.436;2023-06-22T12:31:08;35.08;;;22.38;;
78610;SDS011;67932;50.474;4.436;2023-06-22T12:33:34;34.97;;;21.75;;
78610;SDS011;67932;50.474;4.436;2023-06-22T12:36:02;29.85;;;19.20;;
78610;SDS011;67932;50.474;4.436;2023-06-22T12:38:30;30.55;;;19.35;;
78610;SDS011;67932;50.474;4.436;2023-06-22T12:40:56;31.83;;;19.17;;
78610;SDS011;67932;50.474;4.436;2023-06-22T12:43:22;30.42;;;18.98;;
78610;SDS011;67932;50.474;4.436;2023-06-22T12:45:48;29.65;;;19.20;;
78610;SDS011;67932;50.474;4.436;2023-06-22T12:48:15;31.30;;;20.45;;
78610;SDS011;67932;50.474;4.436;2023-06-22T12:50:42;30.83;;;19.20;;
78610;SDS011;67932;50.474;4.436;2023-06-22T12:53:08;32.95;;;20.77;;
78610;SDS011;67932;50.474;4.436;2023-06-22T12:55:34;31.73;;;19.75;;
78610;SDS011;67932;50.474;4.436;2023-06-22T12:58:01;32.97;;;19.98;;
78610;SDS011;67932;50.474;4.436;2023-06-22T13:00:28;33.28;;;21.27;;
78610;SDS011;67932;50.474;4.436;2023-06-22T13:02:54;41.13;;;23.48;;
78610;SDS011;67932;50.474;4.436;2023-06-22T13:05:22;35.22;;;21.35;;
78610;SDS011;67932;50.474;4.436;2023-06-22T13:07:50;40.60;;;23.05;;
78610;SDS011;67932;50.474;4.436;2023-06-22T13:10:17;36.90;;;23.17;;
78610;SDS011;67932;50.474;4.436;2023-06-22T13:12:44;38.38;;;22.65;;
78610;SDS011;67932;50.474;4.436;2023-06-22T13:15:10;38.78;;;22.30;;
78610;SDS011;67932;50.474;4.436;2023-06-22T13:17:38;37.78;;;22.17;;
78610;SDS011;67932;50.474;4.436;2023-06-22T13:20:04;38.83;;;23.23;;
78610;SDS011;67932;50.474;4.436;2023-06-22T13:22:32;34.80;;;21.88;;
78610;SDS011;67932;50.474;4.436;2023-06-22T13:25:04;38.72;;;22.35;;
78610;SDS011;67932;50.474;4.436;2023-06-22T13:27:32;37.72;;;22.25;;
78610;SDS011;67932;50.474;4.436;2023-06-22T13:29:58;38.50;;;22.27;;
78610;SDS011;67932;50.474;4.436;2023-06-22T13:32:24;38.15;;;22.83;;
78610;SDS011;67932;50.474;4.436;2023-06-22T13:34:51;38.72;;;22.02;;
78610;SDS011;67932;50.474;4.436;2023-06-22T13:37:18;33.08;;;20.50;;
78610;SDS011;67932;50.474;4.436;2023-06-22T13:39:45;33.70;;;21.27;;
78610;SDS011;67932;50.474;4.436;2023-06-22T13:42:11;36.22;;;21.40;;
78610;SDS011;67932;50.474;4.436;2023-06-22T13:44:38;36.83;;;21.65;;
78610;SDS011;67932;50.474;4.436;2023-06-22T13:47:04;34.50;;;21.40;;
78610;SDS011;67932;50.474;4.436;2023-06-22T13:49:31;35.25;;;21.13;;
78610;SDS011;67932;50.474;4.436;2023-06-22T13:51:57;34.33;;;21.83;;
78610;SDS011;67932;50.474;4.436;2023-06-22T13:54:24;34.03;;;21.20;;
78610;SDS011;67932;50.474;4.436;2023-06-22T13:56:50;34.63;;;21.70;;
78610;SDS011;67932;50.474;4.436;2023-06-22T13:59:16;34.35;;;21.80;;
78610;SDS011;67932;50.474;4.436;2023-06-22T14:01:43;39.45;;;22.42;;
78610;SDS011;67932;50.474;4.436;2023-06-22T14:04:09;38.05;;;22.77;;
78610;SDS011;67932;50.474;4.436;2023-06-22T14:06:36;39.63;;;23.40;;
78610;SDS011;67932;50.474;4.436;2023-06-22T14:09:03;37.03;;;24.17;;
78610;SDS011;67932;50.474;4.436;2023-06-22T14:11:29;35.92;;;22.70;;
78610;SDS011;67932;50.474;4.436;2023-06-22T14:13:57;37.95;;;23.35;;
78610;SDS011;67932;50.474;4.436;2023-06-22T14:16:23;39.45;;;23.13;;
78610;SDS011;67932;50.474;4.436;2023-06-22T14:18:49;36.15;;;23.15;;
78610;SDS011;67932;50.474;4.436;2023-06-22T14:21:15;39.92;;;24.30;;
78610;SDS011;67932;50.474;4.436;2023-06-22T14:23:43;37.22;;;22.38;;
78610;SDS011;67932;50.474;4.436;2023-06-22T14:26:14;34.85;;;22.95;;
78610;SDS011;67932;50.474;4.436;2023-06-22T14:28:43;37.35;;;22.95;;
78610;SDS011;67932;50.474;4.436;2023-06-22T14:31:16;36.20;;;22.83;;
78610;SDS011;67932;50.474;4.436;2023-06-22T14:33:45;35.08;;;23.30;;
78610;SDS011;67932;50.474;4.436;2023-06-22T14:36:13;33.03;;;20.27;;
78610;SDS011;67932;50.474;4.436;2023-06-22T14:38:40;34.13;;;20.65;;
78610;SDS011;67932;50.474;4.436;2023-06-22T14:41:07;36.05;;;21.58;;
78610;SDS011;67932;50.474;4.436;2023-06-22T14:43:33;34.47;;;21.27;;